createdAt,value
2018-06-27T00:00:47.308Z,91.00
2018-06-27T00:03:16.709Z,91.00
2018-06-27T00:05:45.839Z,90.80
2018-06-27T00:08:15.297Z,90.70
2018-06-27T00:10:44.462Z,90.60
2018-06-27T00:13:13.734Z,90.70
2018-06-27T00:15:42.893Z,90.80
2018-06-27T00:18:12.184Z,90.70
2018-06-27T00:20:41.274Z,90.80
2018-06-27T00:23:10.367Z,90.90
2018-06-27T00:25:39.593Z,91.30
2018-06-27T00:28:08.791Z,91.20
2018-06-27T00:30:37.961Z,91.30
2018-06-27T00:33:07.136Z,91.20
2018-06-27T00:35:36.383Z,91.30
2018-06-27T00:38:11.376Z,91.60
2018-06-27T00:40:40.792Z,91.60
2018-06-27T00:43:09.976Z,92.30
2018-06-27T00:45:39.242Z,92.30
2018-06-27T00:48:08.854Z,92.20
2018-06-27T00:50:38.420Z,91.90
2018-06-27T00:53:07.598Z,91.80
2018-06-27T00:58:06.378Z,91.70
2018-06-27T01:00:35.625Z,91.70
2018-06-27T01:03:04.783Z,92.50
2018-06-27T01:05:33.957Z,92.80
2018-06-27T01:08:03.101Z,92.60
2018-06-27T01:10:32.270Z,92.80
2018-06-27T01:13:01.390Z,92.80
2018-06-27T01:15:30.489Z,92.50
2018-06-27T01:17:59.637Z,92.40
2018-06-27T01:20:28.799Z,92.80
2018-06-27T01:22:57.930Z,92.80
2018-06-27T01:25:27.365Z,92.90
2018-06-27T01:27:56.483Z,92.60
2018-06-27T01:30:25.660Z,92.90
2018-06-27T01:32:54.817Z,93.70
2018-06-27T01:35:24.017Z,93.60
2018-06-27T01:37:53.190Z,93.70
2018-06-27T01:40:22.387Z,93.60
2018-06-27T01:42:51.782Z,93.70
2018-06-27T01:45:20.918Z,93.50
2018-06-27T01:47:50.111Z,93.70
2018-06-27T01:50:19.253Z,93.90
2018-06-27T01:52:48.389Z,93.50
2018-06-27T01:55:17.586Z,93.30
2018-06-27T01:57:46.792Z,93.40
2018-06-27T02:00:15.990Z,93.40
2018-06-27T02:02:45.217Z,93.30
2018-06-27T02:05:14.391Z,93.70
2018-06-27T02:07:43.530Z,93.20
2018-06-27T02:10:12.677Z,93.10
2018-06-27T02:12:41.803Z,93.30
2018-06-27T02:15:10.965Z,93.20
2018-06-27T02:17:40.102Z,93.20
2018-06-27T02:20:09.301Z,93.20
2018-06-27T02:22:38.469Z,93.20
2018-06-27T02:25:07.713Z,93.50
2018-06-27T02:27:36.937Z,93.40
2018-06-27T02:30:06.045Z,93.40
2018-06-27T02:32:35.231Z,93.60
2018-06-27T02:35:04.657Z,93.80
2018-06-27T02:37:33.821Z,93.80
2018-06-27T02:40:03.101Z,93.90
2018-06-27T02:42:32.369Z,93.80
2018-06-27T02:45:01.563Z,93.70
2018-06-27T02:47:30.710Z,94.00
2018-06-27T02:49:59.850Z,94.20
2018-06-27T02:52:29.014Z,93.90
2018-06-27T02:54:58.173Z,94.00
2018-06-27T02:57:27.375Z,94.00
2018-06-27T02:59:56.514Z,93.90
2018-06-27T03:02:25.792Z,93.90
2018-06-27T03:04:54.956Z,94.10
2018-06-27T03:07:24.222Z,94.20
2018-06-27T03:09:53.335Z,93.90
2018-06-27T03:12:22.495Z,93.40
2018-06-27T03:14:51.601Z,93.60
2018-06-27T03:17:20.747Z,93.50
2018-06-27T03:19:49.884Z,93.20
2018-06-27T03:22:18.993Z,93.00
2018-06-27T03:24:48.102Z,92.90
2018-06-27T03:27:17.284Z,92.90
2018-06-27T03:29:46.489Z,92.90
2018-06-27T03:32:15.621Z,92.90
2018-06-27T03:34:44.753Z,93.00
2018-06-27T03:37:14.119Z,93.10
2018-06-27T03:39:44.005Z,93.20
2018-06-27T03:42:13.203Z,93.10
2018-06-27T03:44:42.394Z,93.20
2018-06-27T03:47:11.571Z,93.30
2018-06-27T03:49:40.793Z,93.30
2018-06-27T03:52:10.209Z,93.30
2018-06-27T03:54:39.394Z,93.30
2018-06-27T03:57:08.561Z,93.50
2018-06-27T03:59:37.777Z,93.80
2018-06-27T04:02:06.971Z,93.80
2018-06-27T04:04:36.217Z,93.60
2018-06-27T04:07:05.354Z,93.40
2018-06-27T04:09:34.557Z,93.20
2018-06-27T04:12:03.774Z,93.10
2018-06-27T04:14:32.959Z,93.10
2018-06-27T04:17:02.155Z,93.20
2018-06-27T04:19:31.310Z,93.10
2018-06-27T04:22:00.434Z,93.20
2018-06-27T04:24:29.626Z,92.70
2018-06-27T04:26:58.728Z,92.60
2018-06-27T04:29:28.719Z,92.70
2018-06-27T04:31:57.847Z,93.00
2018-06-27T04:34:27.094Z,93.10
2018-06-27T04:36:56.213Z,93.30
2018-06-27T04:39:25.627Z,93.20
2018-06-27T04:41:54.839Z,93.00
2018-06-27T04:44:30.206Z,92.90
2018-06-27T04:46:59.358Z,93.30
2018-06-27T04:49:28.508Z,92.90
2018-06-27T04:51:57.638Z,92.90
2018-06-27T04:54:27.312Z,92.90
2018-06-27T04:56:56.534Z,92.80
2018-06-27T04:59:25.688Z,92.70
2018-06-27T05:01:54.854Z,92.70
2018-06-27T05:04:24.001Z,92.60
2018-06-27T05:06:53.128Z,92.40
2018-06-27T05:09:22.293Z,92.70
2018-06-27T05:11:51.493Z,92.30
2018-06-27T05:14:20.621Z,92.20
2018-06-27T05:16:49.765Z,92.20
2018-06-27T05:19:18.903Z,92.00
2018-06-27T05:21:48.073Z,92.00
2018-06-27T05:24:17.166Z,92.20
2018-06-27T05:26:46.286Z,91.80
2018-06-27T05:29:15.413Z,91.60
2018-06-27T05:31:44.557Z,91.90
2018-06-27T05:34:13.748Z,92.00
2018-06-27T05:36:42.903Z,91.60
2018-06-27T05:39:12.391Z,91.40
2018-06-27T05:41:41.557Z,91.20
2018-06-27T05:46:39.428Z,90.70
2018-06-27T05:49:08.623Z,90.50
2018-06-27T05:51:37.856Z,90.50
2018-06-27T05:54:06.995Z,90.40
2018-06-27T05:56:36.250Z,90.30
2018-06-27T05:59:05.438Z,90.20
2018-06-27T06:01:35.044Z,90.30
2018-06-27T06:04:04.328Z,90.20
2018-06-27T06:06:33.496Z,90.00
2018-06-27T06:09:02.727Z,89.40
2018-06-27T06:11:31.896Z,88.50
2018-06-27T06:14:01.122Z,87.50
2018-06-27T06:16:30.259Z,86.80
2018-06-27T06:18:59.439Z,86.30
2018-06-27T06:21:28.638Z,86.10
2018-06-27T06:23:58.031Z,86.20
2018-06-27T06:26:27.290Z,86.40
2018-06-27T06:28:56.526Z,87.20
2018-06-27T06:31:25.758Z,87.60
2018-06-27T06:33:54.961Z,87.00
2018-06-27T06:36:24.235Z,86.10
2018-06-27T06:38:53.455Z,85.30
2018-06-27T06:41:22.655Z,85.00
2018-06-27T06:43:51.851Z,84.40
2018-06-27T06:46:21.022Z,83.00
2018-06-27T06:48:50.301Z,81.30
2018-06-27T06:51:19.497Z,80.30
2018-06-27T06:53:48.693Z,80.20
2018-06-27T06:56:17.865Z,81.40
2018-06-27T06:58:47.130Z,83.40
2018-06-27T07:01:16.228Z,82.50
2018-06-27T07:03:45.405Z,81.40
2018-06-27T07:06:14.803Z,79.30
2018-06-27T07:08:44.019Z,76.00
2018-06-27T07:11:13.278Z,68.50
2018-06-27T07:13:42.310Z,60.50
2018-06-27T07:16:11.474Z,56.80
2018-06-27T07:18:40.650Z,53.20
2018-06-27T07:21:09.825Z,51.20
2018-06-27T07:23:38.960Z,48.30
2018-06-27T07:26:08.143Z,46.00
2018-06-27T07:28:37.333Z,43.60
2018-06-27T07:31:06.512Z,43.80
2018-06-27T07:33:36.763Z,42.20
2018-06-27T07:36:06.039Z,39.80
2018-06-27T07:38:35.093Z,38.60
2018-06-27T07:41:04.336Z,39.50
2018-06-27T07:43:33.911Z,39.60
2018-06-27T07:46:03.086Z,37.70
2018-06-27T07:48:32.282Z,37.50
2018-06-27T07:53:30.222Z,37.70
2018-06-27T07:55:59.498Z,38.30
2018-06-27T07:58:28.940Z,40.80
2018-06-27T08:00:58.034Z,39.50
2018-06-27T08:03:27.236Z,40.00
2018-06-27T08:05:56.486Z,39.90
2018-06-27T08:08:25.612Z,38.50
2018-06-27T08:10:54.789Z,38.60
2018-06-27T08:13:23.947Z,37.20
2018-06-27T08:15:53.069Z,36.10
2018-06-27T08:18:22.237Z,34.90
2018-06-27T08:20:51.379Z,34.00
2018-06-27T08:23:21.377Z,34.00
2018-06-27T08:25:51.864Z,33.70
2018-06-27T08:28:22.420Z,33.10
2018-06-27T08:30:51.629Z,33.40
2018-06-27T08:33:20.897Z,33.60
2018-06-27T08:35:50.045Z,33.60
2018-06-27T08:38:19.215Z,34.60
2018-06-27T08:40:48.410Z,34.30
2018-06-27T08:45:46.618Z,34.40
2018-06-27T08:48:15.812Z,35.60
2018-06-27T08:50:44.986Z,35.40
2018-06-27T08:53:14.210Z,35.70
2018-06-27T08:55:43.771Z,36.90
2018-06-27T08:58:12.883Z,41.00
2018-06-27T09:00:42.044Z,44.10
2018-06-27T09:03:11.197Z,47.30
2018-06-27T09:05:40.642Z,48.00
2018-06-27T09:08:10.168Z,49.60
2018-06-27T09:10:39.382Z,49.10
2018-06-27T09:13:08.608Z,49.00
2018-06-27T09:15:38.230Z,50.90
2018-06-27T09:18:09.717Z,51.90
2018-06-27T09:20:38.897Z,53.10
2018-06-27T09:23:08.224Z,53.60
2018-06-27T09:25:38.230Z,53.50
2018-06-27T09:28:07.458Z,53.80
2018-06-27T09:30:36.711Z,54.40
2018-06-27T09:33:05.862Z,54.30
2018-06-27T09:35:35.042Z,56.10
2018-06-27T09:38:04.306Z,56.80
2018-06-27T09:40:33.634Z,57.30
2018-06-27T09:43:02.886Z,57.90
2018-06-27T09:45:32.052Z,58.50
2018-06-27T09:48:01.267Z,59.40
2018-06-27T09:50:30.734Z,59.30
2018-06-27T09:52:59.862Z,59.00
2018-06-27T09:55:29.013Z,58.70
2018-06-27T09:57:58.185Z,58.90
2018-06-27T10:00:32.653Z,57.90
2018-06-27T10:03:01.830Z,56.80
2018-06-27T10:05:31.046Z,56.90
2018-06-27T10:08:00.887Z,56.20
2018-06-27T10:10:30.162Z,56.80
2018-06-27T10:12:59.360Z,57.10
2018-06-27T10:15:28.600Z,57.80
2018-06-27T10:17:57.824Z,58.90
2018-06-27T10:20:27.308Z,59.60
2018-06-27T10:22:56.445Z,60.20
2018-06-27T10:25:25.665Z,60.30
2018-06-27T10:27:54.816Z,60.50
2018-06-27T10:30:23.969Z,60.40
2018-06-27T10:32:53.221Z,61.20
2018-06-27T10:35:22.467Z,62.20
2018-06-27T10:37:51.616Z,61.70
2018-06-27T10:40:21.166Z,61.90
2018-06-27T10:42:50.443Z,61.90
2018-06-27T10:45:19.576Z,60.20
2018-06-27T10:47:48.858Z,59.00
2018-06-27T10:50:18.014Z,57.30
2018-06-27T10:52:47.146Z,55.80
2018-06-27T10:55:19.906Z,56.60
2018-06-27T10:57:49.376Z,56.60
2018-06-27T11:00:18.688Z,57.30
2018-06-27T11:02:47.813Z,57.10
2018-06-27T11:05:17.027Z,57.10
2018-06-27T11:07:46.203Z,57.10
2018-06-27T11:10:15.411Z,57.00
2018-06-27T11:12:44.684Z,57.20
2018-06-27T11:15:13.823Z,56.90
2018-06-27T11:17:42.996Z,56.30
2018-06-27T11:20:12.286Z,56.10
2018-06-27T11:22:41.564Z,55.80
2018-06-27T11:25:10.738Z,55.60
2018-06-27T11:27:39.873Z,56.30
2018-06-27T11:30:09.057Z,56.40
2018-06-27T11:32:38.279Z,56.20
2018-06-27T11:35:07.562Z,56.60
2018-06-27T11:37:36.878Z,56.60
2018-06-27T11:40:06.145Z,56.70
2018-06-27T11:42:35.355Z,56.30
2018-06-27T11:45:04.557Z,56.50
2018-06-27T11:47:33.788Z,56.00
2018-06-27T11:50:02.909Z,55.70
2018-06-27T11:52:32.093Z,54.80
2018-06-27T11:55:06.691Z,54.70
2018-06-27T11:57:35.921Z,53.60
2018-06-27T12:00:05.760Z,53.80
2018-06-27T12:02:35.006Z,54.20
2018-06-27T12:05:04.865Z,52.80
2018-06-27T12:07:34.078Z,52.50
2018-06-27T12:10:03.415Z,52.50
2018-06-27T12:12:32.641Z,52.60
2018-06-27T12:15:01.840Z,52.60
2018-06-27T12:17:31.049Z,53.00
2018-06-27T12:20:00.262Z,53.90
2018-06-27T12:22:29.453Z,52.40
2018-06-27T12:24:58.638Z,51.00
2018-06-27T12:27:27.800Z,49.80
2018-06-27T12:29:56.990Z,50.40
2018-06-27T12:32:26.241Z,49.90
2018-06-27T12:34:55.517Z,49.50
2018-06-27T12:37:24.689Z,49.80
2018-06-27T12:39:53.882Z,50.30
2018-06-27T12:42:23.019Z,50.20
2018-06-27T12:44:52.179Z,49.20
2018-06-27T12:47:21.523Z,48.60
2018-06-27T12:49:50.687Z,47.80
2018-06-27T12:52:19.807Z,46.80
2018-06-27T12:54:49.082Z,46.50
2018-06-27T12:57:18.254Z,46.20
2018-06-27T12:59:47.876Z,46.50
2018-06-27T13:02:17.017Z,47.00
2018-06-27T13:04:46.239Z,47.00
2018-06-27T13:07:15.497Z,46.20
2018-06-27T13:09:44.712Z,46.60
2018-06-27T13:12:13.902Z,45.50
2018-06-27T13:14:43.213Z,44.50
2018-06-27T13:17:12.389Z,41.80
2018-06-27T13:19:41.588Z,41.80
2018-06-27T13:22:10.758Z,41.20
2018-06-27T13:24:40.044Z,39.90
2018-06-27T13:27:09.253Z,39.90
2018-06-27T13:29:38.691Z,40.10
2018-06-27T13:32:07.882Z,40.70
2018-06-27T13:34:37.127Z,40.20
2018-06-27T13:37:06.414Z,39.80
2018-06-27T13:39:35.591Z,38.80
2018-06-27T13:42:04.816Z,38.70
2018-06-27T13:44:33.985Z,38.00
2018-06-27T13:47:04.760Z,38.40
2018-06-27T13:49:33.929Z,38.60
2018-06-27T13:52:03.128Z,38.10
2018-06-27T13:54:32.273Z,38.50
2018-06-27T13:57:01.429Z,37.60
2018-06-27T13:59:30.638Z,36.80
2018-06-27T14:01:59.799Z,36.90
2018-06-27T14:04:28.900Z,37.60
2018-06-27T14:06:58.113Z,37.70
2018-06-27T14:09:27.294Z,38.80
2018-06-27T14:11:56.450Z,38.50
2018-06-27T14:14:25.853Z,38.40
2018-06-27T14:16:55.036Z,38.50
2018-06-27T14:19:24.256Z,38.80
2018-06-27T14:21:53.437Z,38.30
2018-06-27T14:24:22.694Z,37.60
2018-06-27T14:26:51.846Z,37.60
2018-06-27T14:29:21.037Z,38.00
2018-06-27T14:31:50.657Z,38.20
2018-06-27T14:34:19.834Z,37.90
2018-06-27T14:36:49.085Z,37.60
2018-06-27T14:39:18.261Z,37.60
2018-06-27T14:41:47.473Z,37.60
2018-06-27T14:44:16.627Z,37.70
2018-06-27T14:46:45.876Z,38.00
2018-06-27T14:49:15.184Z,38.90
2018-06-27T14:51:44.379Z,38.50
2018-06-27T14:54:13.499Z,38.90
2018-06-27T14:56:42.839Z,38.30
2018-06-27T14:59:12.064Z,38.30
2018-06-27T15:01:41.226Z,37.80
2018-06-27T15:04:10.443Z,37.40
2018-06-27T15:06:40.527Z,37.70
2018-06-27T15:09:10.486Z,38.30
2018-06-27T15:11:39.719Z,38.50
2018-06-27T15:14:08.925Z,38.80
2018-06-27T15:16:38.189Z,38.90
2018-06-27T15:19:07.409Z,38.90
2018-06-27T15:21:36.655Z,40.00
2018-06-27T15:24:05.980Z,40.00
2018-06-27T15:26:35.167Z,40.80
2018-06-27T15:29:04.415Z,40.70
2018-06-27T15:31:33.888Z,40.60
2018-06-27T15:34:03.032Z,40.90
2018-06-27T15:36:32.264Z,41.30
2018-06-27T15:39:01.400Z,41.00
2018-06-27T15:41:30.621Z,39.90
2018-06-27T15:43:59.854Z,40.80
2018-06-27T15:46:29.136Z,40.50
2018-06-27T15:48:58.308Z,40.30
2018-06-27T15:51:27.489Z,38.70
2018-06-27T15:53:56.658Z,38.10
2018-06-27T15:56:25.870Z,38.70
2018-06-27T15:58:55.075Z,38.20
2018-06-27T16:01:24.266Z,38.30
2018-06-27T16:03:53.448Z,37.90
2018-06-27T16:06:22.642Z,38.50
2018-06-27T16:08:51.851Z,38.80
2018-06-27T16:11:21.115Z,39.20
2018-06-27T16:13:50.308Z,39.60
2018-06-27T16:16:19.461Z,39.30
2018-06-27T16:18:48.733Z,39.50
2018-06-27T16:21:17.908Z,39.30
2018-06-27T16:23:47.135Z,39.20
2018-06-27T16:26:16.361Z,37.80
2018-06-27T16:28:45.570Z,37.80
2018-06-27T16:31:14.880Z,37.40
2018-06-27T16:33:44.103Z,37.20
2018-06-27T16:36:13.397Z,37.80
2018-06-27T16:38:42.596Z,37.70
2018-06-27T16:41:11.913Z,37.60
2018-06-27T16:43:41.063Z,37.80
2018-06-27T16:46:10.314Z,38.00
2018-06-27T16:48:39.642Z,38.30
2018-06-27T16:51:08.968Z,38.10
2018-06-27T16:53:38.166Z,38.70
2018-06-27T16:56:07.361Z,38.80
2018-06-27T16:58:36.688Z,38.70
2018-06-27T17:06:03.948Z,38.90
2018-06-27T17:08:33.176Z,38.30
2018-06-27T17:11:02.466Z,38.90
2018-06-27T17:13:31.673Z,38.30
2018-06-27T17:16:00.797Z,38.80
2018-06-27T17:18:30.106Z,37.60
2018-06-27T17:21:00.394Z,37.60
2018-06-27T17:23:29.755Z,38.40
2018-06-27T17:25:58.935Z,38.10
2018-06-27T17:28:28.236Z,39.30
2018-06-27T17:30:57.578Z,39.20
2018-06-27T17:33:26.837Z,39.10
2018-06-27T17:35:56.232Z,40.10
2018-06-27T17:38:25.470Z,39.90
2018-06-27T17:40:54.643Z,40.00
2018-06-27T17:43:23.892Z,40.30
2018-06-27T17:45:53.252Z,40.50
2018-06-27T17:48:22.505Z,40.50
2018-06-27T17:50:51.747Z,40.00
2018-06-27T17:53:21.147Z,40.00
2018-06-27T17:55:50.323Z,40.60
2018-06-27T17:58:19.469Z,40.80
2018-06-27T18:00:48.634Z,41.60
2018-06-27T18:03:17.917Z,42.50
2018-06-27T18:05:47.158Z,43.80
2018-06-27T18:08:16.431Z,44.60
2018-06-27T18:10:45.779Z,45.10
2018-06-27T18:13:15.018Z,45.70
2018-06-27T18:15:44.491Z,46.30
2018-06-27T18:18:13.815Z,46.90
2018-06-27T18:20:43.075Z,46.90
2018-06-27T18:23:12.345Z,47.50
2018-06-27T18:25:41.515Z,47.60
2018-06-27T18:28:10.713Z,48.30
2018-06-27T18:30:40.331Z,47.90
2018-06-27T18:33:11.762Z,48.50
2018-06-27T18:35:41.073Z,47.40
2018-06-27T18:38:10.231Z,47.30
2018-06-27T18:40:39.425Z,47.80
2018-06-27T18:43:08.679Z,47.60
2018-06-27T18:45:38.007Z,47.60
2018-06-27T18:48:07.239Z,48.20
2018-06-27T18:50:36.480Z,49.20
2018-06-27T18:53:06.344Z,48.80
2018-06-27T18:55:35.652Z,49.30
2018-06-27T18:58:05.179Z,49.40
2018-06-27T19:00:34.473Z,49.80
2018-06-27T19:03:03.771Z,49.90
2018-06-27T19:05:33.375Z,50.40
2018-06-27T19:08:02.667Z,50.40
2018-06-27T19:13:00.707Z,50.60
2018-06-27T19:15:29.886Z,51.00
2018-06-27T19:17:59.548Z,51.20
2018-06-27T19:20:28.850Z,51.30
2018-06-27T19:22:58.055Z,51.30
2018-06-27T19:25:27.264Z,51.40
2018-06-27T19:27:56.574Z,51.70
2018-06-27T19:30:25.891Z,52.00
2018-06-27T19:32:55.084Z,52.20
2018-06-27T19:35:24.273Z,52.30
2018-06-27T19:37:53.562Z,52.60
2018-06-27T19:40:22.744Z,52.40
2018-06-27T19:42:51.983Z,52.50
2018-06-27T19:45:21.162Z,52.90
2018-06-27T19:47:50.534Z,52.80
2018-06-27T19:50:19.847Z,52.80
2018-06-27T19:52:49.245Z,52.70
2018-06-27T19:55:18.729Z,52.90
2018-06-27T19:57:48.133Z,53.00
2018-06-27T20:00:17.488Z,52.90
2018-06-27T20:02:46.868Z,53.20
2018-06-27T20:05:17.201Z,53.00
2018-06-27T20:07:46.541Z,53.40
2018-06-27T20:10:16.026Z,53.40
2018-06-27T20:12:45.419Z,53.10
2018-06-27T20:15:14.812Z,53.60
2018-06-27T20:17:44.235Z,53.50
2018-06-27T20:20:13.580Z,53.30
2018-06-27T20:22:43.314Z,53.40
2018-06-27T20:25:12.571Z,53.60
2018-06-27T20:27:41.886Z,53.60
2018-06-27T20:30:11.217Z,53.30
2018-06-27T20:32:40.672Z,53.00
2018-06-27T20:35:10.045Z,53.30
2018-06-27T20:37:39.459Z,53.10
2018-06-27T20:40:08.783Z,53.00
2018-06-27T20:42:38.127Z,53.00
2018-06-27T20:45:07.465Z,52.80
2018-06-27T20:47:37.327Z,53.10
2018-06-27T20:50:06.759Z,52.70
2018-06-27T20:52:38.556Z,53.20
2018-06-27T20:55:07.907Z,53.20
2018-06-27T20:57:37.294Z,53.40
2018-06-27T21:00:07.177Z,53.70
2018-06-27T21:02:36.518Z,53.90
2018-06-27T21:05:06.261Z,54.00
2018-06-27T21:07:35.535Z,54.00
2018-06-27T21:10:05.170Z,54.30
2018-06-27T21:12:34.577Z,54.40
2018-06-27T21:15:04.102Z,54.40
2018-06-27T21:17:33.444Z,54.70
2018-06-27T21:20:02.905Z,54.80
2018-06-27T21:22:32.260Z,54.80
2018-06-27T21:25:01.483Z,55.10
2018-06-27T21:27:30.914Z,55.20
2018-06-27T21:30:00.295Z,55.20
2018-06-27T21:32:30.016Z,55.40
2018-06-27T21:34:59.327Z,55.60
2018-06-27T21:37:28.577Z,55.90
2018-06-27T21:39:57.754Z,55.90
2018-06-27T21:44:55.633Z,55.80
2018-06-27T21:47:24.812Z,56.00
2018-06-27T21:49:53.968Z,56.20
2018-06-27T21:52:23.107Z,56.20
2018-06-27T21:54:52.291Z,56.20
2018-06-27T21:57:21.480Z,56.40
2018-06-27T21:59:50.697Z,56.40
2018-06-27T22:02:19.889Z,56.50
2018-06-27T22:04:49.033Z,57.40
2018-06-27T22:07:18.195Z,56.90
2018-06-27T22:09:47.423Z,57.20
2018-06-27T22:12:16.590Z,58.10
2018-06-27T22:17:14.439Z,58.00
2018-06-27T22:19:43.620Z,58.40
2018-06-27T22:22:12.780Z,58.80
2018-06-27T22:24:41.909Z,58.80
2018-06-27T22:27:11.158Z,59.00
2018-06-27T22:29:40.315Z,60.30
2018-06-27T22:32:09.489Z,60.00
2018-06-27T22:34:38.618Z,59.60
2018-06-27T22:37:07.809Z,59.50
2018-06-27T22:39:36.956Z,60.50
2018-06-27T22:42:06.226Z,60.10
2018-06-27T22:44:35.383Z,60.50
2018-06-27T22:47:04.591Z,60.50
2018-06-27T22:49:33.754Z,61.10
2018-06-27T22:52:02.953Z,60.90
2018-06-27T22:54:32.641Z,61.20
2018-06-27T22:57:01.770Z,61.50
2018-06-27T22:59:30.888Z,61.80
2018-06-27T23:02:00.082Z,62.30
2018-06-27T23:04:29.389Z,62.40
2018-06-27T23:06:58.547Z,62.70
2018-06-27T23:09:27.752Z,63.00
2018-06-27T23:11:56.894Z,62.90
2018-06-27T23:14:26.040Z,62.30
2018-06-27T23:16:55.244Z,62.20
2018-06-27T23:19:24.492Z,62.10
2018-06-27T23:21:53.571Z,62.00
2018-06-27T23:24:22.769Z,61.80
2018-06-27T23:26:51.986Z,62.30
2018-06-27T23:29:21.099Z,61.40
2018-06-27T23:31:50.277Z,61.70
2018-06-27T23:34:19.405Z,61.60
2018-06-27T23:39:17.283Z,61.80
2018-06-27T23:41:46.528Z,62.20
2018-06-27T23:44:15.682Z,62.30
2018-06-27T23:46:44.875Z,62.50
2018-06-27T23:49:14.019Z,63.20
2018-06-27T23:51:43.184Z,63.70
2018-06-27T23:54:12.377Z,64.00
2018-06-27T23:56:41.512Z,64.40
2018-06-27T23:59:10.645Z,65.30
